Time;durP1;ratioP1;P1;durP2;ratioP2;P2;SDS_P1;SDS_P2;PMS_P1;PMS_P2;Temp;Humidity;BMP_temperature;BMP_pressure;BME280_temperature;BME280_humidity;BME280_pressure;Samples;Min_cycle;Max_cycle;Signal;HPM_P1;HPM_P2
2023/06/24 00:01:31;;;;;;;11.30;9.40;;;16.90;99.90;;;;;;7375948;19;20023;-79
2023/06/24 00:03:58;;;;;;;11.90;10.48;;;16.90;99.90;;;;;;7373934;19;20018;-78
2023/06/24 00:06:25;;;;;;;11.88;9.15;;;16.80;99.90;;;;;;7376369;19;20389;-78
2023/06/24 00:09:00;;;;;;;10.70;9.25;;;16.80;99.90;;;;;;7376370;19;20027;-78
2023/06/24 00:11:30;;;;;;;10.90;9.55;;;16.70;99.90;;;;;;7377663;19;21348;-78
2023/06/24 00:13:56;;;;;;;12.52;9.38;;;16.60;99.90;;;;;;7376128;19;20022;-77
2023/06/24 00:16:27;;;;;;;11.13;10.00;;;16.60;99.90;;;;;;7374211;19;20037;-78
2023/06/24 00:18:58;;;;;;;10.55;9.48;;;16.50;99.90;;;;;;7376285;19;20074;-79
2023/06/24 00:21:31;;;;;;;12.73;9.60;;;16.50;99.90;;;;;;7375277;19;20085;-78
2023/06/24 00:23:58;;;;;;;11.52;9.30;;;16.60;99.90;;;;;;7376261;19;20030;-78
2023/06/24 00:26:25;;;;;;;11.45;10.23;;;16.60;99.90;;;;;;7376372;19;20014;-78
2023/06/24 00:28:51;;;;;;;10.23;9.20;;;16.60;99.90;;;;;;7376958;19;20059;-79
2023/06/24 00:31:19;;;;;;;10.90;9.82;;;16.50;99.90;;;;;;7378629;19;20040;-78
2023/06/24 00:33:45;;;;;;;10.85;9.35;;;16.60;99.90;;;;;;7373107;19;20109;-78
2023/06/24 00:36:12;;;;;;;11.38;9.52;;;16.50;99.90;;;;;;7373275;19;20047;-78
2023/06/24 00:38:39;;;;;;;11.80;9.18;;;16.50;99.90;;;;;;7371734;19;20026;-78
2023/06/24 00:41:07;;;;;;;11.52;10.30;;;16.40;99.90;;;;;;7375772;19;20021;-78
2023/06/24 00:43:34;;;;;;;10.57;9.48;;;16.30;99.90;;;;;;7374361;19;20177;-78
2023/06/24 00:46:02;;;;;;;11.35;10.25;;;16.30;99.90;;;;;;7373473;19;20022;-78
2023/06/24 00:48:28;;;;;;;11.80;10.70;;;16.20;99.90;;;;;;7377441;19;20022;-78
2023/06/24 00:50:58;;;;;;;12.63;10.77;;;16.20;99.90;;;;;;7373191;19;20018;-78
2023/06/24 00:53:26;;;;;;;12.40;10.32;;;16.20;99.90;;;;;;7374293;19;20026;-78
2023/06/24 00:55:55;;;;;;;13.10;11.25;;;16.10;99.90;;;;;;7372597;19;20103;-77
2023/06/24 00:58:22;;;;;;;13.18;10.65;;;16.10;99.90;;;;;;7376170;19;20021;-77
2023/06/24 01:00:57;;;;;;;13.43;10.80;;;16.10;99.90;;;;;;7374709;19;20710;-77
2023/06/24 01:03:25;;;;;;;12.02;10.80;;;16.10;99.90;;;;;;7375256;19;20018;-78
2023/06/24 01:05:53;;;;;;;11.60;10.02;;;16.00;99.90;;;;;;7373446;19;20106;-77
2023/06/24 01:08:22;;;;;;;11.43;10.23;;;16.00;99.90;;;;;;7376995;19;20078;-78
2023/06/24 01:10:53;;;;;;;14.15;11.10;;;15.90;99.90;;;;;;7370860;19;20052;-78
2023/06/24 01:13:20;;;;;;;11.88;9.50;;;15.90;99.90;;;;;;7368332;19;20015;-79
2023/06/24 01:15:47;;;;;;;11.73;10.52;;;15.90;99.90;;;;;;7373339;19;20014;-79
2023/06/24 01:18:54;;;;;;;11.63;10.43;;;15.90;99.90;;;;;;7374881;19;20015;-78
2023/06/24 01:21:38;;;;;;;11.48;10.07;;;15.80;99.90;;;;;;7370554;19;20478;-79
2023/06/24 01:24:17;;;;;;;13.50;10.55;;;15.80;99.90;;;;;;7374437;19;20006;-79
2023/06/24 01:26:52;;;;;;;12.38;11.18;;;15.70;99.90;;;;;;7374078;19;20078;-78
2023/06/24 01:29:57;;;;;;;11.85;10.60;;;15.70;99.90;;;;;;7371801;19;20090;-79
2023/06/24 01:32:28;;;;;;;12.68;11.25;;;15.70;99.90;;;;;;7373257;19;20025;-78
2023/06/24 01:35:00;;;;;;;11.13;10.02;;;15.60;99.90;;;;;;7374944;19;20086;-79
2023/06/24 01:37:43;;;;;;;11.35;10.15;;;15.60;99.90;;;;;;7373646;19;20025;-78
2023/06/24 01:40:25;;;;;;;11.63;10.43;;;15.50;99.90;;;;;;7371729;19;20014;-79
2023/06/24 01:42:52;;;;;;;11.20;10.10;;;15.50;99.90;;;;;;7370723;19;20395;-79
2023/06/24 01:45:50;;;;;;;10.98;9.88;;;15.50;99.90;;;;;;7375429;19;20097;-78
2023/06/24 01:48:25;;;;;;;11.68;9.88;;;15.40;99.90;;;;;;7367848;19;20022;-77
2023/06/24 01:51:09;;;;;;;12.05;10.50;;;15.40;99.90;;;;;;7375990;19;20018;-78
2023/06/24 01:53:44;;;;;;;12.18;10.27;;;15.30;99.90;;;;;;7373863;19;20018;-78
2023/06/24 01:56:15;;;;;;;12.02;10.75;;;15.30;99.90;;;;;;7373025;19;20086;-78
2023/06/24 01:58:44;;;;;;;13.43;12.07;;;15.30;99.90;;;;;;7365810;19;20104;-78
2023/06/24 02:01:12;;;;;;;12.68;11.32;;;15.40;99.90;;;;;;7373062;19;20031;-79
2023/06/24 02:03:41;;;;;;;13.18;11.73;;;15.30;99.90;;;;;;7375938;19;20510;-78
2023/06/24 02:06:09;;;;;;;12.07;10.88;;;15.40;99.90;;;;;;7372863;19;20015;-78
2023/06/24 02:08:38;;;;;;;12.32;10.93;;;15.30;99.90;;;;;;7369755;19;20022;-77
2023/06/24 02:11:06;;;;;;;11.10;9.98;;;15.30;99.90;;;;;;7371626;19;20022;-78
2023/06/24 02:13:35;;;;;;;11.75;10.55;;;15.20;99.90;;;;;;7373820;19;20030;-78
2023/06/24 02:16:03;;;;;;;12.10;10.90;;;15.10;99.90;;;;;;7372594;19;20801;-78
2023/06/24 02:18:29;;;;;;;13.27;11.98;;;15.00;99.90;;;;;;7371610;19;21286;-79
2023/06/24 02:20:58;;;;;;;13.82;12.52;;;15.00;99.90;;;;;;7372824;19;20120;-78
2023/06/24 02:23:26;;;;;;;12.52;11.32;;;14.90;99.90;;;;;;7372580;19;20014;-78
2023/06/24 02:25:54;;;;;;;12.43;11.13;;;14.90;99.90;;;;;;7369825;19;20035;-78
2023/06/24 02:28:21;;;;;;;13.48;10.75;;;14.80;99.90;;;;;;7364001;19;20022;-78
2023/06/24 02:30:47;;;;;;;12.90;11.02;;;14.80;99.90;;;;;;7374931;19;20014;-77
2023/06/24 02:33:15;;;;;;;13.02;11.40;;;14.90;99.90;;;;;;7371089;19;20014;-78
2023/06/24 02:35:45;;;;;;;13.90;12.52;;;14.80;99.90;;;;;;7373669;19;20026;-78
2023/06/24 02:38:12;;;;;;;16.70;13.32;;;14.90;99.90;;;;;;7370144;19;20021;-79
2023/06/24 02:40:39;;;;;;;16.23;13.80;;;14.80;99.90;;;;;;7368213;19;20208;-78
2023/06/24 02:43:05;;;;;;;12.88;11.68;;;14.80;99.90;;;;;;7371220;19;20022;-78
2023/06/24 02:45:32;;;;;;;13.25;11.88;;;14.70;99.90;;;;;;7373091;19;20029;-79
2023/06/24 02:47:59;;;;;;;17.25;12.90;;;14.70;99.90;;;;;;7370825;19;20078;-78
2023/06/24 02:50:27;;;;;;;14.77;12.30;;;14.60;99.90;;;;;;7372597;19;20011;-78
2023/06/24 02:52:54;;;;;;;13.45;12.10;;;14.60;99.90;;;;;;7370666;19;20022;-79
2023/06/24 02:55:25;;;;;;;12.82;11.57;;;14.60;99.90;;;;;;7373401;19;20018;-78
2023/06/24 02:57:57;;;;;;;;;;;14.50;99.90;;;;;;7371417;19;20978;-79
2023/06/24 03:00:27;;;;;;;14.35;12.10;;;14.50;99.90;;;;;;7371516;19;19949;-79
2023/06/24 03:03:14;;;;;;;14.93;13.05;;;14.50;99.90;;;;;;7370159;19;20025;-78
2023/06/24 03:06:02;;;;;;;14.30;12.88;;;14.50;99.90;;;;;;7369137;19;20022;-78
2023/06/24 03:08:30;;;;;;;15.57;13.48;;;14.50;99.90;;;;;;7370595;19;20513;-78
2023/06/24 03:10:58;;;;;;;15.65;13.13;;;14.60;99.90;;;;;;7368101;19;20018;-78
2023/06/24 03:13:26;;;;;;;15.15;12.85;;;14.60;99.90;;;;;;7372990;19;20027;-78
2023/06/24 03:15:59;;;;;;;16.33;14.73;;;14.60;99.90;;;;;;7370415;19;20047;-78
2023/06/24 03:18:27;;;;;;;16.17;14.57;;;14.60;99.90;;;;;;7374875;19;20029;-78
2023/06/24 03:20:53;;;;;;;16.08;14.48;;;14.60;99.90;;;;;;7372795;19;20379;-78
2023/06/24 03:23:23;;;;;;;17.27;14.15;;;14.60;99.90;;;;;;7373201;19;20852;-78
2023/06/24 03:25:49;;;;;;;16.85;15.15;;;14.70;99.90;;;;;;7376832;19;20031;-78
2023/06/24 03:28:17;;;;;;;16.38;14.75;;;14.70;99.90;;;;;;7378429;19;20097;-78
2023/06/24 03:30:49;;;;;;;17.48;15.63;;;14.70;99.90;;;;;;7375194;19;20033;-78
2023/06/24 03:33:19;;;;;;;17.70;15.98;;;14.80;99.90;;;;;;7379152;19;20021;-78
2023/06/24 03:35:46;;;;;;;16.98;15.38;;;14.80;99.90;;;;;;7379638;19;20108;-78
2023/06/24 03:38:15;;;;;;;17.65;15.85;;;14.80;99.90;;;;;;7377776;19;20070;-79
2023/06/24 03:40:43;;;;;;;17.42;15.43;;;14.80;99.90;;;;;;7374543;19;20052;-78
2023/06/24 03:43:10;;;;;;;21.88;15.95;;;14.90;99.90;;;;;;7374753;19;20037;-78
2023/06/24 03:45:36;;;;;;;17.80;15.90;;;14.90;99.90;;;;;;7377633;19;20019;-78
2023/06/24 03:48:03;;;;;;;17.70;15.73;;;14.90;99.90;;;;;;7378194;19;20019;-78
2023/06/24 03:50:31;;;;;;;17.80;15.65;;;14.90;99.90;;;;;;7375404;19;20026;-78
2023/06/24 03:52:57;;;;;;;18.60;16.50;;;15.00;99.90;;;;;;7375601;19;20018;-78
2023/06/24 03:55:23;;;;;;;19.77;14.90;;;15.00;99.90;;;;;;7371866;19;20014;-77
2023/06/24 03:57:51;;;;;;;17.90;15.65;;;15.00;99.90;;;;;;7373081;19;20022;-77
2023/06/24 04:00:20;;;;;;;19.90;16.52;;;15.00;99.90;;;;;;7378487;19;20078;-76
2023/06/24 04:02:47;;;;;;;17.95;15.90;;;15.10;99.90;;;;;;7374574;19;20827;-78
2023/06/24 04:05:13;;;;;;;16.23;14.73;;;15.10;99.90;;;;;;7376264;19;20086;-79
2023/06/24 04:07:39;;;;;;;19.10;16.55;;;15.20;99.90;;;;;;7377399;19;20018;-79
2023/06/24 04:10:10;;;;;;;24.38;16.98;;;15.20;99.90;;;;;;7380465;19;20010;-78
2023/06/24 04:12:37;;;;;;;17.98;15.90;;;15.30;99.90;;;;;;7377575;19;20019;-78
2023/06/24 04:15:04;;;;;;;18.42;16.40;;;15.30;99.90;;;;;;7376761;19;20104;-78
2023/06/24 04:17:32;;;;;;;18.17;16.35;;;15.40;99.90;;;;;;7378712;19;20011;-78
2023/06/24 04:20:00;;;;;;;22.27;17.13;;;15.40;99.90;;;;;;7379486;19;20018;-78
2023/06/24 04:22:26;;;;;;;18.45;15.98;;;15.50;99.90;;;;;;7375666;19;20022;-78
2023/06/24 04:24:56;;;;;;;17.58;15.52;;;15.50;99.90;;;;;;7375073;19;20023;-78
2023/06/24 04:27:24;;;;;;;20.15;17.48;;;15.50;99.90;;;;;;7374486;19;20057;-77
2023/06/24 04:29:52;;;;;;;18.50;16.52;;;15.60;99.90;;;;;;7370336;19;20011;-78
2023/06/24 04:32:21;;;;;;;17.73;15.82;;;15.60;99.90;;;;;;7375660;19;20018;-78
2023/06/24 04:34:47;;;;;;;17.45;15.55;;;15.70;99.90;;;;;;7374540;19;20029;-78
2023/06/24 04:37:14;;;;;;;17.35;15.43;;;15.70;99.90;;;;;;7373067;19;20074;-79
2023/06/24 04:39:42;;;;;;;18.73;16.50;;;15.80;99.90;;;;;;7377572;19;20019;-78
2023/06/24 04:42:08;;;;;;;18.58;16.60;;;15.90;99.90;;;;;;7376072;19;20050;-78
2023/06/24 04:44:34;;;;;;;21.33;16.90;;;16.00;99.90;;;;;;7374548;19;20024;-77
2023/06/24 04:47:01;;;;;;;18.60;15.70;;;16.00;99.90;;;;;;7371470;19;20023;-78
2023/06/24 04:49:27;;;;;;;18.65;16.42;;;16.10;99.90;;;;;;7377707;19;20022;-78
2023/06/24 04:51:53;;;;;;;20.77;16.67;;;16.20;99.90;;;;;;7374181;19;20078;-77
2023/06/24 04:54:20;;;;;;;17.63;15.88;;;16.30;99.90;;;;;;7376790;19;20013;-78
2023/06/24 04:56:48;;;;;;;18.67;16.63;;;16.40;99.90;;;;;;7372932;19;20018;-78
2023/06/24 04:59:15;;;;;;;18.92;16.58;;;16.50;99.90;;;;;;7371847;19;20025;-78
2023/06/24 05:01:41;;;;;;;18.25;15.75;;;16.50;99.90;;;;;;7369606;19;20018;-78
2023/06/24 05:04:07;;;;;;;19.20;16.73;;;16.60;99.90;;;;;;7376497;19;20053;-78
2023/06/24 05:06:34;;;;;;;21.02;16.83;;;16.80;99.90;;;;;;7374452;19;20025;-78
2023/06/24 05:09:00;;;;;;;17.52;15.80;;;16.90;99.90;;;;;;7372966;19;20041;-79
2023/06/24 05:11:26;;;;;;;19.05;17.13;;;17.10;99.90;;;;;;7374025;19;20014;-79
2023/06/24 05:13:53;;;;;;;16.58;14.88;;;17.40;99.90;;;;;;7369306;19;20014;-78
2023/06/24 05:16:19;;;;;;;18.00;16.13;;;17.80;99.90;;;;;;7373664;19;20037;-79
2023/06/24 05:18:45;;;;;;;16.90;14.68;;;18.10;99.90;;;;;;7370285;19;20855;-79
2023/06/24 05:21:11;;;;;;;18.85;15.32;;;18.50;99.90;;;;;;7375628;19;20026;-79
2023/06/24 05:23:38;;;;;;;19.75;15.88;;;18.70;99.90;;;;;;7372188;19;20377;-80
2023/06/24 05:26:04;;;;;;;16.55;14.82;;;18.90;99.90;;;;;;7372360;19;20026;-79
2023/06/24 05:28:30;;;;;;;16.70;14.25;;;19.10;99.90;;;;;;7373333;19;20030;-79
2023/06/24 05:30:58;;;;;;;19.35;14.27;;;19.40;99.90;;;;;;7374589;19;20021;-79
2023/06/24 05:33:24;;;;;;;15.23;13.70;;;19.60;99.90;;;;;;7372935;19;20638;-79
2023/06/24 05:35:50;;;;;;;15.40;13.90;;;19.70;99.90;;;;;;7368692;19;20022;-81
2023/06/24 05:38:17;;;;;;;16.67;15.05;;;19.90;99.90;;;;;;7372142;19;20118;-80
2023/06/24 05:40:43;;;;;;;14.43;12.93;;;20.10;99.90;;;;;;7373741;19;20025;-79
2023/06/24 05:43:10;;;;;;;16.17;14.57;;;20.30;99.90;;;;;;7370815;19;20033;-79
2023/06/24 05:45:37;;;;;;;17.10;15.15;;;20.50;99.90;;;;;;7372024;19;20018;-78
2023/06/24 05:48:06;;;;;;;14.40;13.07;;;20.70;99.90;;;;;;7364616;19;20489;-78
2023/06/24 05:50:32;;;;;;;16.70;13.38;;;20.80;99.90;;;;;;7361792;19;20014;-79
2023/06/24 05:52:58;;;;;;;15.45;13.95;;;21.00;99.90;;;;;;7370212;19;20025;-79
2023/06/24 05:55:25;;;;;;;13.93;12.65;;;21.30;99.90;;;;;;7376215;19;20019;-89
2023/06/24 05:57:52;;;;;;;15.02;13.73;;;21.30;99.90;;;;;;7378929;19;20022;-88
2023/06/24 06:00:21;;;;;;;39.85;35.97;;;21.50;99.90;;;;;;7391369;19;20434;-94
2023/06/24 06:02:49;;;;;;;22.67;20.33;;;21.70;99.90;;;;;;7395966;19;20573;-92
2023/06/24 06:05:16;;;;;;;27.15;24.73;;;21.90;99.90;;;;;;7400936;19;20077;-92
2023/06/24 06:07:49;;;;;;;19.63;17.58;;;22.10;99.90;;;;;;7404484;19;20022;-94
2023/06/24 06:10:25;;;;;;;13.38;12.13;;;22.20;99.90;;;;;;7398119;19;20026;-93
2023/06/24 06:12:55;;;;;;;34.22;31.08;;;22.50;99.90;;;;;;7395676;19;20018;-94
2023/06/24 06:15:33;;;;;;;41.08;37.45;;;22.60;99.90;;;;;;7390253;19;20018;-93
2023/06/24 06:18:03;;;;;;;43.05;39.17;;;22.80;99.90;;;;;;7392653;19;20010;-95
2023/06/24 06:20:31;;;;;;;18.70;16.92;;;22.90;99.90;;;;;;7397537;19;20019;-94
2023/06/24 06:23:11;;;;;;;26.25;23.88;;;23.10;99.90;;;;;;7397913;19;20018;-94
2023/06/24 06:25:50;;;;;;;13.02;11.55;;;23.10;99.90;;;;;;7394543;19;20752;-95
2023/06/24 06:28:23;;;;;;;14.63;13.15;;;23.30;99.90;;;;;;7394063;19;20010;-94
2023/06/24 06:30:52;;;;;;;13.38;12.07;;;23.50;99.90;;;;;;7394535;19;20022;-95
2023/06/24 06:33:23;;;;;;;12.45;11.30;;;23.60;99.90;;;;;;7396176;19;20846;-93
2023/06/24 06:35:51;;;;;;;15.02;12.27;;;23.70;99.90;;;;;;7392613;19;20019;-92
2023/06/24 06:38:21;;;;;;;16.48;14.02;;;23.80;99.90;;;;;;7389977;19;20024;-93
2023/06/24 06:40:49;;;;;;;12.43;11.15;;;24.00;99.90;;;;;;7389491;19;20382;-92
2023/06/24 06:43:56;;;;;;;65.38;59.60;;;24.00;99.90;;;;;;7391153;19;20518;-93
2023/06/24 06:46:28;;;;;;;12.18;11.05;;;24.20;99.90;;;;;;7391192;19;20077;-95
2023/06/24 06:49:38;;;;;;;13.10;11.43;;;24.30;99.90;;;;;;7391592;19;20565;-93
2023/06/24 06:55:14;;;;;;;22.40;14.85;;;24.50;99.90;;;;;;7388691;19;20546;-94
2023/06/24 06:57:44;;;;;;;;;;;24.70;99.90;;;;;;7388032;19;20026;-93
2023/06/24 07:00:13;;;;;;;;;;;24.50;99.90;;;;;;7388761;19;19939;-93
2023/06/24 07:02:53;;;;;;;13.77;11.50;;;24.60;99.90;;;;;;7387453;19;19927;-95
2023/06/24 07:05:39;;;;;;;15.25;11.07;;;24.60;99.90;;;;;;7389192;19;20015;-94
2023/06/24 07:08:14;;;;;;;13.38;10.52;;;24.90;99.90;;;;;;7388433;19;20013;-94
2023/06/24 07:10:54;;;;;;;12.10;10.97;;;25.10;99.90;;;;;;7387073;19;20019;-95
2023/06/24 07:13:52;;;;;;;14.82;11.35;;;25.20;99.90;;;;;;7388134;19;20014;-93
2023/06/24 07:16:54;;;;;;;13.48;11.57;;;25.50;99.90;;;;;;7387220;19;20022;-92
2023/06/24 07:19:44;;;;;;;12.23;10.38;;;25.50;99.90;;;;;;7387847;19;20022;-93
2023/06/24 07:22:19;;;;;;;14.27;12.88;;;25.70;99.90;;;;;;7386341;19;20021;-93
2023/06/24 07:24:46;;;;;;;14.65;12.93;;;25.80;99.90;;;;;;7386339;19;20041;-88
2023/06/24 07:27:19;;;;;;;14.25;12.95;;;26.20;99.90;;;;;;7383729;19;20022;-91
2023/06/24 07:30:17;;;;;;;12.00;10.70;;;26.20;99.90;;;;;;7384756;19;20057;-93
2023/06/24 07:32:47;;;;;;;13.90;12.63;;;26.30;99.90;;;;;;7378086;19;20037;-90
2023/06/24 07:35:21;;;;;;;15.10;13.68;;;26.50;99.90;;;;;;7374640;19;20027;-88
2023/06/24 07:37:50;;;;;;;14.48;13.02;;;26.60;99.90;;;;;;7372333;19;20014;-89
2023/06/24 07:40:29;;;;;;;12.40;11.23;;;26.90;99.90;;;;;;7365538;19;20026;-89
2023/06/24 07:43:01;;;;;;;32.55;29.48;;;27.20;99.90;;;;;;7366115;19;20058;-90
2023/06/24 07:45:33;;;;;;;22.10;20.05;;;27.40;99.90;;;;;;7369726;19;20014;-90
2023/06/24 07:48:01;;;;;;;10.93;9.93;;;27.60;99.90;;;;;;7376914;19;20026;-89
2023/06/24 07:50:27;;;;;;;12.70;11.27;;;27.20;99.90;;;;;;7373767;19;20094;-90
2023/06/24 07:52:58;;;;;;;12.20;10.88;;;27.00;99.90;;;;;;7375359;19;20026;-90
2023/06/24 07:55:34;;;;;;;12.75;11.65;;;27.20;99.90;;;;;;7372119;19;21187;-89
2023/06/24 07:58:02;;;;;;;11.88;10.52;;;27.30;99.90;;;;;;7365941;19;20025;-90
2023/06/24 08:00:36;;;;;;;13.70;12.45;;;27.50;99.90;;;;;;7367449;19;20022;-88
2023/06/24 08:03:34;;;;;;;13.38;12.10;;;27.40;99.90;;;;;;7372424;19;20021;-89
2023/06/24 08:06:07;;;;;;;12.23;10.95;;;27.50;99.10;;;;;;7375685;19;20690;-90
2023/06/24 08:08:39;;;;;;;12.10;10.98;;;27.80;99.00;;;;;;7379230;19;20114;-88
2023/06/24 08:11:16;;;;;;;12.43;11.23;;;28.20;98.10;;;;;;7383660;19;20312;-91
2023/06/24 08:14:04;;;;;;;10.95;9.90;;;28.40;98.10;;;;;;7384123;19;20517;-91
2023/06/24 08:16:49;;;;;;;14.30;11.73;;;28.70;97.90;;;;;;7386644;19;20015;-90
2023/06/24 08:19:19;;;;;;;12.38;10.93;;;28.60;94.10;;;;;;7383054;19;20014;-92
2023/06/24 08:21:55;;;;;;;14.75;11.23;;;28.30;94.70;;;;;;7381925;19;20014;-91
2023/06/24 08:25:01;;;;;;;11.05;9.95;;;28.20;92.90;;;;;;7381146;19;20022;-91
2023/06/24 08:28:47;;;;;;;;;;;;;;;;;;;;;
2023/06/24 08:31:31;;;;;;;11.35;9.43;;;28.30;88.80;;;;;;7381099;19;20029;-90
2023/06/24 08:34:05;;;;;;;11.77;9.43;;;28.40;87.10;;;;;;7386076;19;20010;-91
2023/06/24 08:41:13;;;;;;;11.10;9.60;;;28.80;87.50;;;;;;7385726;19;20118;-92
2023/06/24 08:44:01;;;;;;;10.30;9.20;;;29.20;84.20;;;;;;7388759;19;20165;-89
2023/06/24 08:46:30;;;;;;;11.27;10.05;;;29.50;86.20;;;;;;7383480;19;20018;-89
2023/06/24 08:49:20;;;;;;;9.73;8.70;;;29.70;82.00;;;;;;7382042;19;20015;-92
2023/06/24 08:52:14;;;;;;;10.68;9.57;;;30.10;78.30;;;;;;7385311;19;20035;-93
2023/06/24 08:55:16;;;;;;;8.77;7.65;;;30.20;77.80;;;;;;7385712;19;20019;-92
2023/06/24 08:57:48;;;;;;;9.25;7.78;;;30.20;73.40;;;;;;7384295;19;20039;-92
2023/06/24 09:00:51;;;;;;;7.95;7.15;;;30.50;74.10;;;;;;7383121;19;20099;-90
2023/06/24 09:03:29;;;;;;;10.80;6.40;;;30.80;72.00;;;;;;7379867;19;20085;-90
2023/06/24 09:06:10;;;;;;;7.90;6.05;;;30.80;66.20;;;;;;7386815;19;20070;-91
2023/06/24 09:09:30;;;;;;;8.18;7.20;;;31.00;62.10;;;;;;7376259;19;20019;-88
2023/06/24 09:12:37;;;;;;;8.77;7.88;;;30.50;62.40;;;;;;7380107;19;20486;-90
2023/06/24 09:15:31;;;;;;;8.45;6.70;;;30.20;62.50;;;;;;7379413;19;20025;-91
2023/06/24 09:18:02;;;;;;;9.50;8.50;;;30.40;65.00;;;;;;7379332;19;20022;-89
2023/06/24 09:20:49;;;;;;;10.90;9.82;;;30.50;64.60;;;;;;7379315;19;20019;-90
2023/06/24 09:23:26;;;;;;;9.05;6.07;;;30.90;64.70;;;;;;7376963;19;20022;-87
2023/06/24 09:25:57;;;;;;;5.90;5.00;;;30.70;60.90;;;;;;7379026;19;20015;-88
2023/06/24 09:28:28;;;;;;;7.32;5.65;;;31.00;59.00;;;;;;7379578;19;20896;-90
2023/06/24 09:31:10;;;;;;;5.82;4.60;;;31.00;58.10;;;;;;7379720;19;20019;-89
2023/06/24 09:33:45;;;;;;;6.43;4.63;;;30.90;57.60;;;;;;7378327;19;20027;-89
2023/06/24 09:36:31;;;;;;;6.50;4.60;;;31.10;56.90;;;;;;7380078;19;20098;-90
2023/06/24 09:39:11;;;;;;;4.95;3.83;;;31.10;55.90;;;;;;7381925;19;20022;-88
2023/06/24 09:42:02;;;;;;;5.63;4.32;;;31.00;55.30;;;;;;7382151;19;20438;-90
2023/06/24 09:45:07;;;;;;;5.97;4.13;;;31.30;53.50;;;;;;7382438;19;20470;-90
2023/06/24 09:47:57;;;;;;;7.45;4.35;;;31.70;53.40;;;;;;7375678;19;20022;-88
2023/06/24 09:50:41;;;;;;;5.10;4.28;;;31.40;54.30;;;;;;7374518;19;20022;-89
2023/06/24 09:53:11;;;;;;;5.72;4.30;;;31.50;54.00;;;;;;7377789;19;20041;-87
2023/06/24 09:55:43;;;;;;;;;;;31.40;53.70;;;;;;7379520;19;20018;-91
2023/06/24 09:58:11;;;;;;;5.95;4.50;;;31.30;55.30;;;;;;7378775;19;19974;-91
2023/06/24 10:00:45;;;;;;;5.53;4.20;;;31.60;53.60;;;;;;7378616;19;20082;-90
2023/06/24 10:03:21;;;;;;;5.45;3.90;;;31.50;53.20;;;;;;7377801;19;20047;-91
2023/06/24 10:05:51;;;;;;;8.10;5.20;;;31.70;52.60;;;;;;7382982;19;20014;-91
2023/06/24 10:08:20;;;;;;;6.25;4.75;;;32.10;53.20;;;;;;7380030;19;20049;-90
2023/06/24 10:10:50;;;;;;;5.60;3.78;;;32.00;52.60;;;;;;7383547;19;20018;-91
2023/06/24 10:13:23;;;;;;;7.10;4.03;;;32.20;53.10;;;;;;7386603;19;20078;-91
2023/06/24 10:15:50;;;;;;;4.80;4.03;;;32.60;52.50;;;;;;7389137;19;20074;-91
2023/06/24 10:18:35;;;;;;;7.88;4.63;;;32.60;51.50;;;;;;7391271;19;20018;-92
2023/06/24 10:21:21;;;;;;;5.78;3.35;;;32.90;51.40;;;;;;7393468;19;20034;-90
2023/06/24 10:24:03;;;;;;;7.07;3.58;;;32.90;49.00;;;;;;7388811;19;20018;-92
2023/06/24 10:26:36;;;;;;;5.22;2.97;;;33.10;48.00;;;;;;7388599;19;21159;-90
2023/06/24 10:29:17;;;;;;;4.93;3.60;;;32.90;47.90;;;;;;7386267;19;20029;-89
2023/06/24 10:31:53;;;;;;;4.93;3.47;;;32.90;47.70;;;;;;7384184;19;20018;-92
2023/06/24 10:34:23;;;;;;;4.75;3.22;;;33.10;45.90;;;;;;7383100;19;20553;-90
2023/06/24 10:37:04;;;;;;;4.45;3.60;;;33.20;47.20;;;;;;7381482;19;20029;-90
2023/06/24 10:39:54;;;;;;;4.97;4.00;;;33.10;46.70;;;;;;7378671;19;20617;-91
2023/06/24 10:42:33;;;;;;;4.03;2.92;;;33.40;46.90;;;;;;7376775;19;20019;-91
2023/06/24 10:45:21;;;;;;;5.03;3.58;;;32.70;46.00;;;;;;7385998;19;20029;-89
2023/06/24 10:47:59;;;;;;;5.78;3.65;;;32.60;46.60;;;;;;7380264;19;20323;-89
2023/06/24 10:50:31;;;;;;;4.97;4.05;;;32.70;46.40;;;;;;7379188;19;20880;-90
2023/06/24 10:53:00;;;;;;;5.70;3.67;;;33.00;46.50;;;;;;7376063;19;20455;-90
2023/06/24 10:55:27;;;;;;;6.15;3.50;;;33.20;46.60;;;;;;7377399;19;20018;-91
2023/06/24 10:57:54;;;;;;;3.97;3.10;;;32.70;47.00;;;;;;7377720;19;20014;-90
2023/06/24 11:00:22;;;;;;;6.38;3.92;;;32.90;47.00;;;;;;7377420;19;20018;-90
2023/06/24 11:02:49;;;;;;;5.85;4.18;;;33.20;46.30;;;;;;7377968;19;20022;-89
2023/06/24 11:05:16;;;;;;;7.20;3.90;;;33.30;46.70;;;;;;7375072;19;20019;-89
2023/06/24 11:07:43;;;;;;;6.70;5.05;;;33.70;45.40;;;;;;7373687;19;20022;-89
2023/06/24 11:10:14;;;;;;;5.43;3.25;;;33.70;45.70;;;;;;7376171;19;20018;-89
2023/06/24 11:12:46;;;;;;;6.80;3.33;;;34.10;46.10;;;;;;7378060;19;20006;-90
2023/06/24 11:15:15;;;;;;;5.35;3.70;;;34.00;45.60;;;;;;7381275;19;20030;-90
2023/06/24 11:17:53;;;;;;;4.15;3.22;;;34.30;44.60;;;;;;7382116;19;20041;-90
2023/06/24 11:20:23;;;;;;;5.45;4.22;;;33.50;44.80;;;;;;7378690;19;20039;-90
2023/06/24 11:22:53;;;;;;;5.13;3.75;;;33.10;45.70;;;;;;7372822;19;20102;-90
2023/06/24 11:25:23;;;;;;;5.72;3.60;;;33.20;47.10;;;;;;7374267;19;20021;-90
2023/06/24 11:27:53;;;;;;;4.45;3.28;;;33.60;46.40;;;;;;7375097;19;20018;-89
2023/06/24 11:30:20;;;;;;;;;;;33.70;46.10;;;;;;7375633;19;20380;-89
2023/06/24 11:32:50;;;;;;;5.78;4.45;;;34.10;45.00;;;;;;7376040;19;20025;-89
2023/06/24 11:35:17;;;;;;;5.68;3.80;;;34.20;45.30;;;;;;7375373;19;20025;-89
2023/06/24 11:37:50;;;;;;;5.32;3.38;;;34.60;45.10;;;;;;7372297;19;20019;-90
2023/06/24 11:40:20;;;;;;;5.50;4.25;;;34.20;45.20;;;;;;7381294;19;20083;-89
2023/06/24 11:42:50;;;;;;;4.95;3.42;;;34.40;44.90;;;;;;7385908;19;20010;-91
2023/06/24 11:45:24;;;;;;;5.43;4.03;;;34.10;44.30;;;;;;7385173;19;20039;-90
2023/06/24 11:48:02;;;;;;;5.05;3.63;;;34.50;43.70;;;;;;7385711;19;20026;-90
2023/06/24 11:50:32;;;;;;;4.72;4.22;;;34.30;44.00;;;;;;7387805;19;20032;-92
2023/06/24 11:52:59;;;;;;;7.32;6.30;;;34.80;44.00;;;;;;7381311;19;20022;-91
2023/06/24 11:55:31;;;;;;;9.98;4.50;;;35.00;44.10;;;;;;7380875;19;20014;-91
2023/06/24 11:58:05;;;;;;;4.25;3.13;;;34.90;46.40;;;;;;7383410;19;20090;-90
2023/06/24 12:00:40;;;;;;;10.40;8.73;;;34.90;46.20;;;;;;7381192;19;20033;-92
2023/06/24 12:03:11;;;;;;;4.50;3.67;;;34.70;46.60;;;;;;7379286;19;20018;-88
2023/06/24 12:05:55;;;;;;;6.47;3.95;;;34.30;46.00;;;;;;7382276;19;20014;-91
2023/06/24 12:08:28;;;;;;;6.18;3.53;;;34.20;46.00;;;;;;7380025;19;20016;-90
2023/06/24 12:11:00;;;;;;;6.32;3.63;;;34.00;45.30;;;;;;7380879;19;20022;-91
2023/06/24 12:13:33;;;;;;;4.63;3.63;;;33.70;45.80;;;;;;7383975;19;20026;-90
2023/06/24 12:16:02;;;;;;;5.57;4.38;;;33.60;45.90;;;;;;7383972;19;20018;-89
2023/06/24 12:18:29;;;;;;;5.28;3.45;;;33.70;47.30;;;;;;7386046;19;20018;-91
2023/06/24 12:20:58;;;;;;;4.93;3.13;;;33.60;46.20;;;;;;7384228;19;20024;-91
2023/06/24 12:23:25;;;;;;;5.47;3.70;;;34.00;45.30;;;;;;7379955;19;20022;-91
2023/06/24 12:25:52;;;;;;;3.72;2.95;;;34.10;45.30;;;;;;7385619;19;20070;-91
2023/06/24 12:28:20;;;;;;;4.75;3.28;;;34.30;44.80;;;;;;7385271;19;20022;-92
2023/06/24 12:30:47;;;;;;;5.03;3.55;;;34.90;44.30;;;;;;7385610;19;20015;-92
2023/06/24 12:33:18;;;;;;;5.18;3.30;;;35.10;43.90;;;;;;7385206;19;20020;-91
2023/06/24 12:35:46;;;;;;;6.43;3.53;;;35.40;43.70;;;;;;7382221;19;20018;-89
2023/06/24 12:38:12;;;;;;;6.45;3.38;;;35.10;43.10;;;;;;7381980;19;20026;-91
2023/06/24 12:40:42;;;;;;;5.70;3.50;;;34.30;43.50;;;;;;7386639;19;20024;-90
2023/06/24 12:43:09;;;;;;;5.05;3.33;;;34.40;44.20;;;;;;7382678;19;20023;-91
2023/06/24 12:45:36;;;;;;;5.07;3.65;;;33.50;43.90;;;;;;7381819;19;20045;-90
2023/06/24 12:48:05;;;;;;;5.40;4.45;;;33.00;44.00;;;;;;7385107;19;20070;-89
2023/06/24 12:50:32;;;;;;;24.35;22.17;;;33.10;46.30;;;;;;7388998;19;20526;-90
2023/06/24 12:53:04;;;;;;;21.40;19.63;;;33.70;45.90;;;;;;7388318;19;20014;-88
2023/06/24 12:55:54;;;;;;;4.95;3.97;;;34.40;44.70;;;;;;7384596;19;20052;-91
2023/06/24 12:58:25;;;;;;;4.97;3.50;;;34.90;44.00;;;;;;7380856;19;20026;-91
2023/06/24 13:00:52;;;;;;;4.68;3.58;;;35.40;43.50;;;;;;7385514;19;20018;-92
2023/06/24 13:03:20;;;;;;;5.75;3.95;;;35.30;43.70;;;;;;7380999;19;20011;-92
2023/06/24 13:05:52;;;;;;;9.43;3.92;;;35.30;43.30;;;;;;7382896;19;20078;-92
2023/06/24 13:08:22;;;;;;;5.53;4.10;;;35.10;43.40;;;;;;7384965;19;20531;-91
2023/06/24 13:10:50;;;;;;;7.20;6.20;;;34.90;43.70;;;;;;7386508;19;20015;-93
2023/06/24 13:13:16;;;;;;;6.93;4.80;;;34.60;43.80;;;;;;7385350;19;20378;-94